Terminal Aerodrome Forecast
Issued by NWS Tampa Bay Area, FL

Home | Current Version | Previous Version | Text Only | Print | Product List | Glossary On
Versions: 1 2 3 4 5 6 7 8 9 10 11 12
954
FTUS42 KTBW 261737
TAFSRQ
TAF
KSRQ 261737Z 2618/2718 21007KT P6SM SCT045 SCT120
     FM262000 27008KT P6SM SCT050 SCT120
     FM270200 03004KT P6SM SCT040
     FM270800 11005KT P6SM FEW035
     FM271400 14006KT P6SM FEW035 SCT250=

USA.gov is the U.S. government's official web portal to all federal, state and local government web resources and services.